createdAt,value
2019-04-07T00:01:01.014Z,99.90
2019-04-07T00:03:39.215Z,99.90
2019-04-07T00:06:10.115Z,99.90
2019-04-07T00:08:40.994Z,99.90
2019-04-07T00:11:11.615Z,99.90
2019-04-07T00:13:43.295Z,99.90
2019-04-07T00:16:14.551Z,99.90
2019-04-07T00:18:45.160Z,99.90
2019-04-07T00:21:16.835Z,99.90
2019-04-07T00:23:47.846Z,99.90
2019-04-07T00:26:19.029Z,99.90
2019-04-07T00:28:50.258Z,99.90
2019-04-07T00:31:21.627Z,99.90
2019-04-07T00:33:52.309Z,99.90
2019-04-07T00:36:23.027Z,99.90
2019-04-07T00:38:53.811Z,99.90
2019-04-07T00:41:24.838Z,99.90
2019-04-07T00:43:56.162Z,99.90
2019-04-07T00:46:26.894Z,99.90
2019-04-07T00:48:57.822Z,99.90
2019-04-07T00:51:28.454Z,99.90
2019-04-07T00:53:59.746Z,99.90
2019-04-07T00:56:30.385Z,99.90
2019-04-07T00:59:01.093Z,99.90
2019-04-07T01:01:31.782Z,99.90
2019-04-07T01:04:02.360Z,99.90
2019-04-07T01:06:33.164Z,99.90
2019-04-07T01:09:05.235Z,99.90
2019-04-07T01:11:36.296Z,99.90
2019-04-07T01:14:08.175Z,99.90
2019-04-07T01:16:38.839Z,99.90
2019-04-07T01:19:09.979Z,99.90
2019-04-07T01:21:40.637Z,99.90
2019-04-07T01:24:11.306Z,99.90
2019-04-07T01:26:43.597Z,99.90
2019-04-07T01:29:14.718Z,99.90
2019-04-07T01:31:45.422Z,99.90
2019-04-07T01:34:16.209Z,99.90
2019-04-07T01:36:47.144Z,99.90
2019-04-07T01:39:18.317Z,99.90
2019-04-07T01:42:01.622Z,99.90
2019-04-07T01:44:42.996Z,99.90
2019-04-07T01:47:25.011Z,99.90
2019-04-07T01:50:15.919Z,99.90
2019-04-07T01:52:53.404Z,99.90
2019-04-07T01:55:46.388Z,99.90
2019-04-07T01:58:34.839Z,99.90
2019-04-07T02:01:28.518Z,99.90
2019-04-07T02:04:17.166Z,99.90
2019-04-07T02:07:16.208Z,99.90
2019-04-07T02:10:06.289Z,99.90
2019-04-07T02:12:59.065Z,99.90
2019-04-07T02:15:54.918Z,99.90
2019-04-07T02:19:03.605Z,99.90
2019-04-07T02:21:47.299Z,99.90
2019-04-07T02:24:37.216Z,99.90
2019-04-07T02:27:29.741Z,99.90
2019-04-07T02:30:22.355Z,99.90
2019-04-07T02:32:58.524Z,99.90
2019-04-07T02:35:51.103Z,99.90
2019-04-07T02:38:27.564Z,99.90
2019-04-07T02:41:30.496Z,99.90
2019-04-07T02:44:30.026Z,99.90
2019-04-07T02:47:18.799Z,99.90
2019-04-07T02:50:26.821Z,99.90
2019-04-07T02:53:15.930Z,99.90
2019-04-07T02:56:15.243Z,99.90
2019-04-07T02:59:05.888Z,99.90
2019-04-07T03:01:43.428Z,99.90
2019-04-07T03:04:29.174Z,99.90
2019-04-07T03:07:14.824Z,99.90
2019-04-07T03:09:51.912Z,99.90
2019-04-07T03:12:35.940Z,99.90
2019-04-07T03:15:19.855Z,99.90
2019-04-07T03:18:15.131Z,99.90
2019-04-07T03:20:55.837Z,99.90
2019-04-07T03:24:00.679Z,99.90
2019-04-07T03:26:48.981Z,99.90
2019-04-07T03:29:47.346Z,99.90
2019-04-07T03:32:38.329Z,99.90
2019-04-07T03:35:17.868Z,99.90
2019-04-07T03:37:57.193Z,99.90
2019-04-07T03:40:39.742Z,99.90
2019-04-07T03:43:34.917Z,99.90
2019-04-07T03:46:15.109Z,99.90
2019-04-07T03:49:04.522Z,99.90
2019-04-07T03:51:47.932Z,99.90
2019-04-07T03:54:43.465Z,99.90
2019-04-07T03:57:21.558Z,99.90
2019-04-07T04:00:11.188Z,99.90
2019-04-07T04:03:04.839Z,99.90
2019-04-07T04:05:53.670Z,99.90
2019-04-07T04:08:34.964Z,99.90
2019-04-07T04:11:14.204Z,99.90
2019-04-07T04:13:56.123Z,99.90
2019-04-07T04:16:34.393Z,99.90
2019-04-07T04:19:05.166Z,99.90
2019-04-07T04:21:36.551Z,99.90
2019-04-07T04:24:08.321Z,99.90
2019-04-07T04:26:39.046Z,99.90
2019-04-07T04:29:10.382Z,99.90
2019-04-07T04:31:41.123Z,99.90
2019-04-07T04:34:12.050Z,99.90
2019-04-07T04:36:44.740Z,99.90
2019-04-07T04:39:18.711Z,99.90
2019-04-07T04:41:48.887Z,99.90
2019-04-07T04:44:20.547Z,99.90
2019-04-07T04:46:52.993Z,99.90
2019-04-07T04:49:23.629Z,99.90
2019-04-07T04:51:54.540Z,99.90
2019-04-07T04:54:25.807Z,99.90
2019-04-07T04:56:56.933Z,99.90
2019-04-07T04:59:27.928Z,99.90
2019-04-07T05:01:58.931Z,99.90
2019-04-07T05:04:29.592Z,99.90
2019-04-07T05:07:01.268Z,99.90
2019-04-07T05:09:40.930Z,99.90
2019-04-07T05:12:05.812Z,99.90
2019-04-07T05:14:36.653Z,99.90
2019-04-07T05:17:07.394Z,99.90
2019-04-07T05:19:38.832Z,99.90
2019-04-07T05:22:10.254Z,99.90
2019-04-07T05:24:41.185Z,99.90
2019-04-07T05:27:11.782Z,99.90
2019-04-07T05:29:44.673Z,99.90
2019-04-07T05:32:15.806Z,99.90
2019-04-07T05:34:46.827Z,99.90
2019-04-07T05:37:17.743Z,99.90
2019-04-07T05:39:48.801Z,99.90
2019-04-07T05:42:20.059Z,99.90
2019-04-07T05:44:50.919Z,99.90
2019-04-07T05:47:21.706Z,99.90
2019-04-07T05:49:57.313Z,99.90
2019-04-07T05:52:25.207Z,99.90
2019-04-07T05:54:56.272Z,99.90
2019-04-07T05:57:30.895Z,99.90
2019-04-07T06:00:00.365Z,99.90
2019-04-07T06:02:33.456Z,99.90
2019-04-07T06:05:04.149Z,99.90
2019-04-07T06:07:35.962Z,99.90
2019-04-07T06:10:08.005Z,99.90
2019-04-07T06:12:41.574Z,99.90
2019-04-07T06:15:11.764Z,99.90
2019-04-07T06:17:44.594Z,99.90
2019-04-07T06:20:17.032Z,99.90
2019-04-07T06:22:52.839Z,99.90
2019-04-07T06:25:20.842Z,99.90
2019-04-07T06:27:51.930Z,99.90
2019-04-07T06:30:23.350Z,99.90
2019-04-07T06:32:53.994Z,99.90
2019-04-07T06:35:24.713Z,99.90
2019-04-07T06:37:59.398Z,99.90
2019-04-07T06:40:28.543Z,99.90
2019-04-07T06:42:59.135Z,99.90
2019-04-07T06:45:39.977Z,99.90
2019-04-07T06:48:11.426Z,99.90
2019-04-07T06:50:59.754Z,99.90
2019-04-07T06:53:41.679Z,99.90
2019-04-07T06:56:25.900Z,99.90
2019-04-07T06:59:31.670Z,99.90
2019-04-07T07:02:30.207Z,99.90
2019-04-07T07:05:36.195Z,99.90
2019-04-07T07:08:43.252Z,99.90
2019-04-07T07:11:28.043Z,99.90
2019-04-07T07:14:14.037Z,99.90
2019-04-07T07:17:03.173Z,99.90
2019-04-07T07:19:43.403Z,99.90
2019-04-07T07:22:18.642Z,99.90
2019-04-07T07:24:50.240Z,99.90
2019-04-07T07:27:21.788Z,99.90
2019-04-07T07:29:53.743Z,99.90
2019-04-07T07:32:24.859Z,99.90
2019-04-07T07:34:56.107Z,99.90
2019-04-07T07:37:27.009Z,99.90
2019-04-07T07:39:58.290Z,99.90
2019-04-07T07:42:28.980Z,99.90
2019-04-07T07:45:00.218Z,99.90
2019-04-07T07:47:31.343Z,99.90
2019-04-07T07:50:04.957Z,99.90
2019-04-07T07:52:35.129Z,99.90
2019-04-07T07:55:06.362Z,99.90
2019-04-07T07:57:37.101Z,99.90
2019-04-07T08:00:08.522Z,99.90
2019-04-07T08:02:40.096Z,99.90
2019-04-07T08:05:11.427Z,99.90
2019-04-07T08:07:46.799Z,99.90
2019-04-07T08:10:16.957Z,99.90
2019-04-07T08:12:49.508Z,99.90
2019-04-07T08:15:25.453Z,99.90
2019-04-07T08:17:53.199Z,99.90
2019-04-07T08:20:24.241Z,99.90
2019-04-07T08:22:55.253Z,99.90
2019-04-07T08:25:26.169Z,99.90
2019-04-07T08:27:58.041Z,99.90
2019-04-07T08:30:29.122Z,99.90
2019-04-07T08:33:01.283Z,99.90
2019-04-07T08:35:37.766Z,99.90
2019-04-07T08:38:05.809Z,99.90
2019-04-07T08:40:38.195Z,99.80
2019-04-07T08:43:09.159Z,99.40
2019-04-07T08:45:39.868Z,99.90
2019-04-07T08:48:10.896Z,99.90
2019-04-07T08:50:42.076Z,98.80
2019-04-07T08:53:13.827Z,99.90
2019-04-07T08:55:47.775Z,98.80
2019-04-07T08:58:25.089Z,99.00
2019-04-07T09:00:53.897Z,97.50
2019-04-07T09:03:24.959Z,99.90
2019-04-07T09:05:57.382Z,98.00
2019-04-07T09:08:28.060Z,97.20
2019-04-07T09:11:04.629Z,96.80
2019-04-07T09:13:35.292Z,96.80
2019-04-07T09:16:29.019Z,96.90
2019-04-07T09:19:25.156Z,96.80
2019-04-07T09:22:22.869Z,99.90
2019-04-07T09:25:09.773Z,97.60
2019-04-07T09:28:06.351Z,96.10
2019-04-07T09:30:54.791Z,95.00
2019-04-07T09:33:48.915Z,94.80
2019-04-07T09:36:36.377Z,95.70
2019-04-07T09:39:26.948Z,93.90
2019-04-07T09:42:29.073Z,93.80
2019-04-07T09:45:19.587Z,93.90
2019-04-07T09:48:04.555Z,93.30
2019-04-07T09:51:12.114Z,93.20
2019-04-07T09:54:20.585Z,92.90
2019-04-07T09:57:27.840Z,92.80
2019-04-07T10:00:16.038Z,94.50
2019-04-07T10:02:54.107Z,95.20
2019-04-07T10:05:40.454Z,94.50
2019-04-07T10:08:19.120Z,92.70
2019-04-07T10:11:08.449Z,91.90
2019-04-07T10:13:51.169Z,92.00
2019-04-07T10:16:38.362Z,86.80
2019-04-07T10:19:34.050Z,87.70
2019-04-07T10:22:23.291Z,91.70
2019-04-07T10:25:24.898Z,91.40
2019-04-07T10:28:13.896Z,84.30
2019-04-07T10:31:13.920Z,93.90
2019-04-07T10:34:07.443Z,87.60
2019-04-07T10:36:57.906Z,89.90
2019-04-07T10:39:56.990Z,83.00
2019-04-07T10:42:43.788Z,92.40
2019-04-07T10:45:36.502Z,92.00
2019-04-07T10:48:26.936Z,83.60
2019-04-07T10:51:15.489Z,90.00
2019-04-07T10:54:05.791Z,90.20
2019-04-07T10:57:02.338Z,91.50
2019-04-07T10:59:55.730Z,84.50
2019-04-07T11:02:32.141Z,91.60
2019-04-07T11:05:26.988Z,84.50
2019-04-07T11:08:07.163Z,85.90
2019-04-07T11:11:09.715Z,84.60
2019-04-07T11:14:05.835Z,90.40
2019-04-07T11:17:02.450Z,86.30
2019-04-07T11:19:55.258Z,83.40
2019-04-07T11:22:44.176Z,81.80
2019-04-07T11:25:39.960Z,84.20
2019-04-07T11:28:42.244Z,85.10
2019-04-07T11:31:25.496Z,83.60
2019-04-07T11:34:22.561Z,88.30
2019-04-07T11:37:21.282Z,84.60
2019-04-07T11:40:10.782Z,82.70
2019-04-07T11:43:03.424Z,88.50
2019-04-07T11:46:01.274Z,83.80
2019-04-07T11:48:47.611Z,84.60
2019-04-07T11:51:30.184Z,82.40
2019-04-07T11:54:35.718Z,81.80
2019-04-07T11:57:22.550Z,83.50
2019-04-07T12:00:31.401Z,81.20
2019-04-07T12:03:14.930Z,82.80
2019-04-07T12:05:55.079Z,85.60
2019-04-07T12:08:38.784Z,88.80
2019-04-07T12:11:32.695Z,81.70
2019-04-07T12:14:25.653Z,82.20
2019-04-07T12:17:15.420Z,78.60
2019-04-07T12:20:11.332Z,76.80
2019-04-07T12:23:10.388Z,79.80
2019-04-07T12:26:06.579Z,84.70
2019-04-07T12:29:00.377Z,76.60
2019-04-07T12:31:53.232Z,87.10
2019-04-07T12:34:44.042Z,84.90
2019-04-07T12:37:31.778Z,75.50
2019-04-07T12:40:22.332Z,81.70
2019-04-07T12:43:14.150Z,77.80
2019-04-07T12:46:11.551Z,80.80
2019-04-07T12:49:05.402Z,78.00
2019-04-07T12:51:52.438Z,84.40
2019-04-07T12:54:43.665Z,81.30
2019-04-07T12:57:39.446Z,77.40
2019-04-07T13:00:53.730Z,80.20
2019-04-07T13:03:29.962Z,79.20
2019-04-07T13:06:10.763Z,81.00
2019-04-07T13:09:07.119Z,79.80
2019-04-07T13:12:00.019Z,78.80
2019-04-07T13:14:50.692Z,76.90
2019-04-07T13:17:39.843Z,81.50
2019-04-07T13:20:31.045Z,77.80
2019-04-07T13:23:27.644Z,77.90
2019-04-07T13:26:21.077Z,76.60
2019-04-07T13:28:59.465Z,77.40
2019-04-07T13:31:58.052Z,81.70
2019-04-07T13:34:39.837Z,77.00
2019-04-07T13:37:21.487Z,79.70
2019-04-07T13:39:58.791Z,85.80
2019-04-07T13:42:42.873Z,79.70
2019-04-07T13:45:30.189Z,79.80
2019-04-07T13:48:25.859Z,80.30
2019-04-07T13:51:23.540Z,79.10
2019-04-07T13:54:16.720Z,79.20
2019-04-07T13:57:00.174Z,77.70
2019-04-07T13:59:50.423Z,76.80
2019-04-07T14:02:51.962Z,78.20
2019-04-07T14:05:44.810Z,78.40
2019-04-07T14:08:37.810Z,79.50
2019-04-07T14:11:27.492Z,78.30
2019-04-07T14:14:18.980Z,79.70
2019-04-07T14:17:24.805Z,81.10
2019-04-07T14:20:15.025Z,82.00
2019-04-07T14:22:55.618Z,80.20
2019-04-07T14:26:03.592Z,81.30
2019-04-07T14:28:48.425Z,78.40
2019-04-07T14:31:36.580Z,80.10
2019-04-07T14:34:24.549Z,80.90
2019-04-07T14:37:04.180Z,79.10
2019-04-07T14:40:11.938Z,79.10
2019-04-07T14:43:13.686Z,78.30
2019-04-07T14:46:10.193Z,79.40
2019-04-07T14:49:00.074Z,80.80
2019-04-07T14:51:50.108Z,79.20
2019-04-07T14:54:41.943Z,80.30
2019-04-07T14:57:31.621Z,79.20
2019-04-07T15:00:26.957Z,81.00
2019-04-07T15:02:57.627Z,81.80
2019-04-07T15:05:35.896Z,79.70
2019-04-07T15:08:46.239Z,81.20
2019-04-07T15:11:43.321Z,80.50
2019-04-07T15:14:14.858Z,81.80
2019-04-07T15:16:46.188Z,81.90
2019-04-07T15:19:17.818Z,82.20
2019-04-07T15:21:52.087Z,81.10
2019-04-07T15:24:22.631Z,87.40
2019-04-07T15:26:54.130Z,86.90
2019-04-07T15:29:25.359Z,81.50
2019-04-07T15:31:56.497Z,82.40
2019-04-07T15:34:32.110Z,81.70
2019-04-07T15:37:04.648Z,87.70
2019-04-07T15:39:37.256Z,83.70
2019-04-07T15:42:09.292Z,82.20
2019-04-07T15:44:41.594Z,82.70
2019-04-07T15:47:12.743Z,85.00
2019-04-07T15:49:45.436Z,82.30
2019-04-07T15:52:17.479Z,82.60
2019-04-07T15:54:53.345Z,81.00
2019-04-07T15:57:22.919Z,83.10
2019-04-07T15:59:54.172Z,81.50
2019-04-07T16:02:25.734Z,82.00
2019-04-07T16:05:00.462Z,84.30
2019-04-07T16:07:30.545Z,83.80
2019-04-07T16:10:01.928Z,83.60
2019-04-07T16:12:43.676Z,83.20
2019-04-07T16:15:05.336Z,81.30
2019-04-07T16:17:37.269Z,84.10
2019-04-07T16:20:22.185Z,87.70
2019-04-07T16:22:47.028Z,92.20
2019-04-07T16:25:17.109Z,87.70
2019-04-07T16:27:48.230Z,94.60
2019-04-07T16:30:21.513Z,95.80
2019-04-07T16:32:53.594Z,97.20
2019-04-07T16:35:24.593Z,97.40
2019-04-07T16:38:02.793Z,98.40
2019-04-07T16:40:35.003Z,97.90
2019-04-07T16:43:13.833Z,98.30
2019-04-07T16:45:40.011Z,98.20
2019-04-07T16:48:11.078Z,99.00
2019-04-07T16:50:41.935Z,98.70
2019-04-07T16:53:24.886Z,99.60
2019-04-07T16:55:56.203Z,99.20
2019-04-07T16:58:27.608Z,99.90
2019-04-07T17:00:59.000Z,99.90
2019-04-07T17:03:29.939Z,99.90
2019-04-07T17:06:02.023Z,99.90
2019-04-07T17:08:33.876Z,99.90
2019-04-07T17:11:07.726Z,99.90
2019-04-07T17:13:41.261Z,99.90
2019-04-07T17:16:11.859Z,99.90
2019-04-07T17:18:44.660Z,99.90
2019-04-07T17:21:18.381Z,99.90
2019-04-07T17:23:53.161Z,99.90
2019-04-07T17:26:23.849Z,99.90
2019-04-07T17:28:56.953Z,99.90
2019-04-07T17:31:29.982Z,99.90
2019-04-07T17:34:04.625Z,99.90
2019-04-07T17:36:34.380Z,99.90
2019-04-07T17:39:26.182Z,99.90
2019-04-07T17:41:59.236Z,99.90
2019-04-07T17:44:48.354Z,99.90
2019-04-07T17:47:36.705Z,99.90
2019-04-07T17:50:31.010Z,99.90
2019-04-07T17:53:14.780Z,99.90
2019-04-07T17:56:08.724Z,99.90
2019-04-07T17:58:58.721Z,99.90
2019-04-07T18:01:46.762Z,99.90
2019-04-07T18:04:35.968Z,99.90
2019-04-07T18:07:25.426Z,99.90
2019-04-07T18:10:16.871Z,99.90
2019-04-07T18:12:55.437Z,99.90
2019-04-07T18:15:44.458Z,99.90
2019-04-07T18:18:37.739Z,99.90
2019-04-07T18:21:36.669Z,99.90
2019-04-07T18:24:19.162Z,99.90
2019-04-07T18:26:58.624Z,99.90
2019-04-07T18:29:49.173Z,99.90
2019-04-07T18:32:46.382Z,99.90
2019-04-07T18:35:33.305Z,99.90
2019-04-07T18:38:17.380Z,99.90
2019-04-07T18:41:10.436Z,99.90
2019-04-07T18:43:59.582Z,99.90
2019-04-07T18:46:37.932Z,99.90
2019-04-07T18:49:26.986Z,99.90
2019-04-07T18:52:28.878Z,99.90
2019-04-07T18:55:18.653Z,99.90
2019-04-07T18:58:07.613Z,99.90
2019-04-07T19:01:07.341Z,99.90
2019-04-07T19:03:58.596Z,99.90
2019-04-07T19:07:00.342Z,99.90
2019-04-07T19:09:42.606Z,99.90
2019-04-07T19:12:33.177Z,99.90
2019-04-07T19:15:12.069Z,99.90
2019-04-07T19:17:58.906Z,99.90
2019-04-07T19:20:50.234Z,99.90
2019-04-07T19:23:45.948Z,99.90
2019-04-07T19:26:49.982Z,99.90
2019-04-07T19:29:42.594Z,99.90
2019-04-07T19:32:29.200Z,99.90
2019-04-07T19:35:21.767Z,99.90
2019-04-07T19:38:27.332Z,99.90
2019-04-07T19:41:20.908Z,99.90
2019-04-07T19:44:13.736Z,99.90
2019-04-07T19:46:53.263Z,99.90
2019-04-07T19:49:50.506Z,99.90
2019-04-07T19:52:46.493Z,99.90
2019-04-07T19:55:45.268Z,99.90
2019-04-07T19:58:32.616Z,99.90
2019-04-07T20:01:14.880Z,99.90
2019-04-07T20:04:03.553Z,99.90
2019-04-07T20:06:57.914Z,99.90
2019-04-07T20:09:45.136Z,99.90
2019-04-07T20:12:51.992Z,99.90
2019-04-07T20:15:43.171Z,99.90
2019-04-07T20:18:41.926Z,99.90
2019-04-07T20:21:34.772Z,99.90
2019-04-07T20:24:07.367Z,99.90
2019-04-07T20:27:09.310Z,99.90
2019-04-07T20:29:46.092Z,99.90
2019-04-07T20:32:39.172Z,99.90
2019-04-07T20:35:35.315Z,99.90
2019-04-07T20:38:27.272Z,99.90
2019-04-07T20:41:10.263Z,99.90
2019-04-07T20:43:57.274Z,99.90
2019-04-07T20:46:39.663Z,99.90
2019-04-07T20:49:41.197Z,99.90
2019-04-07T20:52:22.227Z,99.90
2019-04-07T20:55:21.174Z,99.90
2019-04-07T20:58:18.799Z,99.90
2019-04-07T21:01:10.062Z,99.90
2019-04-07T21:04:06.445Z,99.90
2019-04-07T21:06:55.152Z,99.90
2019-04-07T21:09:44.083Z,99.90
2019-04-07T21:12:48.298Z,99.90
2019-04-07T21:15:49.806Z,99.90
2019-04-07T21:18:51.681Z,99.90
2019-04-07T21:21:53.899Z,99.90
2019-04-07T21:24:34.456Z,99.90
2019-04-07T21:27:10.996Z,99.90
2019-04-07T21:29:52.522Z,99.90
2019-04-07T21:32:42.249Z,99.90
2019-04-07T21:35:35.462Z,99.90
2019-04-07T21:38:32.679Z,99.90
2019-04-07T21:41:21.996Z,99.90
2019-04-07T21:44:11.345Z,99.90
2019-04-07T21:47:00.937Z,99.90
2019-04-07T21:49:58.069Z,99.90
2019-04-07T21:52:35.659Z,99.90
2019-04-07T21:55:28.945Z,99.90
2019-04-07T21:58:16.758Z,99.90
2019-04-07T22:01:07.869Z,99.90
2019-04-07T22:03:54.505Z,99.90
2019-04-07T22:06:53.545Z,99.90
2019-04-07T22:09:28.886Z,99.90
2019-04-07T22:12:00.185Z,99.90
2019-04-07T22:14:30.914Z,99.90
2019-04-07T22:17:02.770Z,99.90
2019-04-07T22:19:33.997Z,99.90
2019-04-07T22:22:04.898Z,99.90
2019-04-07T22:24:36.915Z,99.90
2019-04-07T22:27:07.803Z,99.90
2019-04-07T22:29:38.671Z,99.90
2019-04-07T22:32:09.490Z,99.90
2019-04-07T22:34:40.105Z,99.90
2019-04-07T22:37:10.722Z,99.90
2019-04-07T22:39:41.820Z,99.90
2019-04-07T22:42:15.411Z,99.90
2019-04-07T22:44:45.861Z,99.90
2019-04-07T22:47:16.836Z,99.90
2019-04-07T22:49:48.541Z,99.90
2019-04-07T22:52:20.533Z,99.90
2019-04-07T22:54:51.908Z,99.90
2019-04-07T22:57:22.544Z,99.90
2019-04-07T22:59:54.584Z,99.90
2019-04-07T23:02:25.212Z,99.90
2019-04-07T23:04:55.883Z,99.90
2019-04-07T23:07:27.576Z,99.90
2019-04-07T23:09:58.280Z,99.90
2019-04-07T23:12:28.871Z,99.90
2019-04-07T23:14:59.841Z,99.90
2019-04-07T23:17:30.552Z,99.90
2019-04-07T23:20:02.339Z,99.90
2019-04-07T23:22:33.970Z,99.90
2019-04-07T23:25:05.759Z,99.90
2019-04-07T23:27:36.620Z,99.90
2019-04-07T23:30:08.851Z,99.90
2019-04-07T23:32:39.745Z,99.90
2019-04-07T23:35:11.135Z,99.90
2019-04-07T23:37:41.734Z,99.90
2019-04-07T23:40:14.408Z,99.90
2019-04-07T23:42:46.707Z,99.90
2019-04-07T23:45:18.568Z,99.90
2019-04-07T23:47:50.447Z,99.90
2019-04-07T23:50:21.133Z,99.90
2019-04-07T23:52:51.929Z,99.90
2019-04-07T23:55:22.861Z,99.90
2019-04-07T23:57:54.274Z,99.90
